Terminal Aerodrome Forecast
Issued by NWS Binghamton, NY

Home | Current Version | Previous Version | Text Only | Print | Product List | Glossary On
Versions: 1 2 3 4 5 6 7 8 9 10 11 12 13 14 15 16 17 18
000
FTUS41 KBGM 301732
TAFAVP
TAF
KAVP 301732Z 3018/3118 25008G16KT P6SM SCT015 BKN040
      TEMPO 3018/3020 4SM HZ BKN025
     FM302300 VRB03KT P6SM SKC
      TEMPO 3108/3112 4SM BR
     FM311400 29010KT P6SM FEW050=

USA.gov is the U.S. government's official web portal to all federal, state and local government web resources and services.